createdAt,value
2023-05-05T00:02:39.229Z,100281.81
2023-05-05T00:07:41.862Z,100268.25
2023-05-05T00:12:43.288Z,100269.50
2023-05-05T00:17:44.768Z,100265.13
2023-05-05T00:22:48.667Z,100276.78
2023-05-05T00:27:50.458Z,100262.22
2023-05-05T00:32:51.911Z,100262.84
2023-05-05T00:37:53.296Z,100260.13
2023-05-05T00:42:54.749Z,100260.13
2023-05-05T00:47:58.865Z,100261.38
2023-05-05T00:53:05.788Z,100263.88
2023-05-05T00:58:07.882Z,100258.25
2023-05-05T01:03:09.384Z,100244.09
2023-05-05T01:08:26.661Z,100254.09
2023-05-05T01:13:46.064Z,100255.53
2023-05-05T01:19:26.657Z,100243.44
2023-05-05T01:24:56.846Z,100237.84
2023-05-05T01:30:17.115Z,100229.06
2023-05-05T01:35:25.412Z,100235.53
2023-05-05T01:40:30.185Z,100232.41
2023-05-05T01:45:35.655Z,100226.41
2023-05-05T01:50:37.368Z,100226.81
2023-05-05T01:55:40.497Z,100214.94
2023-05-05T02:00:43.198Z,100214.75
2023-05-05T02:05:47.392Z,100218.50
2023-05-05T02:10:50.399Z,100209.34
2023-05-05T02:15:53.230Z,100228.47
2023-05-05T02:20:54.784Z,100221.38
2023-05-05T02:26:02.123Z,100239.84
2023-05-05T02:31:05.870Z,100235.09
2023-05-05T02:36:21.082Z,100248.25
2023-05-05T02:41:24.582Z,100256.56
2023-05-05T02:46:27.412Z,100254.69
2023-05-05T02:51:28.784Z,100268.19
2023-05-05T02:56:50.864Z,100254.38
2023-05-05T03:02:18.580Z,100258.78
2023-05-05T03:07:30.777Z,100256.50
2023-05-05T03:12:39.654Z,100262.53
2023-05-05T03:17:42.908Z,100255.03
2023-05-05T03:22:44.638Z,100258.97
2023-05-05T03:27:46.059Z,100267.47
2023-05-05T03:32:47.504Z,100269.34
2023-05-05T03:37:48.836Z,100266.06
2023-05-05T03:42:50.419Z,100264.66
2023-05-05T03:47:51.823Z,100262.56
2023-05-05T03:52:53.246Z,100265.00
2023-05-05T03:57:54.575Z,100275.47
2023-05-05T04:02:56.115Z,100269.88
2023-05-05T04:07:58.255Z,100268.84
2023-05-05T04:12:59.868Z,100271.16
2023-05-05T04:18:01.322Z,100259.31
2023-05-05T04:23:02.737Z,100259.50
2023-05-05T04:28:04.282Z,100264.06
2023-05-05T04:33:05.708Z,100266.78
2023-05-05T04:38:07.047Z,100277.81
2023-05-05T04:43:08.605Z,100282.19
2023-05-05T04:48:10.044Z,100287.41
2023-05-05T04:53:11.425Z,100295.50
2023-05-05T04:58:12.803Z,100284.72
2023-05-05T05:03:14.251Z,100300.94
2023-05-05T05:08:16.979Z,100310.97
2023-05-05T05:13:18.606Z,100309.94
2023-05-05T05:18:20.095Z,100313.47
2023-05-05T05:23:21.506Z,100308.69
2023-05-05T05:28:23.029Z,100309.09
2023-05-05T05:33:24.383Z,100317.66
2023-05-05T05:38:25.896Z,100313.47
2023-05-05T05:43:27.272Z,100319.72
2023-05-05T05:48:29.397Z,100318.25
2023-05-05T05:53:30.864Z,100320.28
2023-05-05T05:58:32.227Z,100335.25
2023-05-05T06:03:33.831Z,100337.69
2023-05-05T06:08:35.433Z,100346.63
2023-05-05T06:13:36.812Z,100346.53
2023-05-05T06:18:38.181Z,100344.84
2023-05-05T06:23:39.811Z,100347.31
2023-05-05T06:28:41.869Z,100345.75
2023-05-05T06:33:43.233Z,100355.88
2023-05-05T06:38:44.598Z,100353.63
2023-05-05T06:43:46.819Z,100352.69
2023-05-05T06:48:48.185Z,100345.25
2023-05-05T06:53:49.782Z,100349.97
2023-05-05T06:58:51.164Z,100354.47
2023-05-05T07:03:52.603Z,100351.41
2023-05-05T07:08:54.151Z,100352.69
2023-05-05T07:13:55.604Z,100351.31
2023-05-05T07:18:57.052Z,100358.19
2023-05-05T07:23:58.421Z,100362.75
2023-05-05T07:28:59.795Z,100355.25
2023-05-05T07:34:01.152Z,100352.00
2023-05-05T07:39:02.528Z,100351.09
2023-05-05T07:44:03.979Z,100360.25
2023-05-05T07:49:06.605Z,100351.25
2023-05-05T07:54:08.647Z,100357.41
2023-05-05T07:59:11.766Z,100345.88
2023-05-05T08:04:14.046Z,100341.59
2023-05-05T08:09:15.948Z,100346.44
2023-05-05T08:14:17.563Z,100351.53
2023-05-05T08:19:28.921Z,100344.91
2023-05-05T08:24:31.192Z,100345.38
2023-05-05T08:29:48.822Z,100339.00
2023-05-05T08:34:52.705Z,100342.44
2023-05-05T08:39:54.540Z,100342.94
2023-05-05T08:44:58.882Z,100338.59
2023-05-05T08:50:02.326Z,100345.66
2023-05-05T08:55:24.567Z,100346.69
2023-05-05T09:00:28.136Z,100342.84
2023-05-05T09:05:29.628Z,100340.28
2023-05-05T09:10:32.422Z,100338.00
2023-05-05T09:15:33.972Z,100341.81
2023-05-05T09:20:37.483Z,100334.13
2023-05-05T09:25:40.255Z,100324.91
2023-05-05T09:30:46.583Z,100318.44
2023-05-05T09:35:53.075Z,100325.09
2023-05-05T09:40:54.420Z,100318.00
2023-05-05T09:46:06.876Z,100315.97
2023-05-05T09:51:08.392Z,100314.50
2023-05-05T09:56:10.305Z,100308.47
2023-05-05T10:01:24.231Z,100292.13
2023-05-05T10:06:44.178Z,100294.44
2023-05-05T10:11:47.423Z,100301.81
2023-05-05T10:16:51.064Z,100297.66
2023-05-05T10:21:54.139Z,100275.38
2023-05-05T10:26:58.599Z,100279.81
2023-05-05T10:32:33.450Z,100282.69
2023-05-05T10:37:31.334Z,100280.00
2023-05-05T10:42:33.242Z,100271.47
2023-05-05T10:47:36.618Z,100260.38
2023-05-05T10:53:07.932Z,100251.88
2023-05-05T10:58:46.983Z,100251.72
2023-05-05T11:04:16.894Z,100243.31
2023-05-05T11:09:28.050Z,100239.88
2023-05-05T11:14:29.493Z,100225.88
2023-05-05T11:19:43.037Z,100230.56
2023-05-05T11:24:44.751Z,100212.66
2023-05-05T11:30:07.164Z,100212.66
2023-05-05T11:35:08.865Z,100221.81
2023-05-05T11:40:29.692Z,100211.34
2023-05-05T11:45:31.145Z,100213.97
2023-05-05T11:50:32.898Z,100211.66
2023-05-05T11:55:34.285Z,100195.22
2023-05-05T12:00:35.768Z,100206.69
2023-05-05T12:05:37.238Z,100195.53
2023-05-05T12:10:38.648Z,100191.56
2023-05-05T12:15:39.980Z,100188.94
2023-05-05T12:20:41.831Z,100196.72
2023-05-05T12:25:43.234Z,100196.47
2023-05-05T12:30:56.540Z,100171.69
2023-05-05T12:35:58.074Z,100176.06
2023-05-05T12:40:59.425Z,100179.69
2023-05-05T12:46:02.403Z,100175.88
2023-05-05T12:51:11.043Z,100167.56
2023-05-05T12:56:31.553Z,100163.88
2023-05-05T13:01:34.332Z,100158.25
2023-05-05T13:06:37.598Z,100154.00
2023-05-05T13:11:39.373Z,100135.34
2023-05-05T13:16:40.803Z,100149.94
2023-05-05T13:21:42.174Z,100116.97
2023-05-05T13:26:43.543Z,100118.91
2023-05-05T13:31:45.809Z,100115.06
2023-05-05T13:36:47.354Z,100099.06
2023-05-05T13:41:48.818Z,100101.34
2023-05-05T13:46:50.217Z,100092.16
2023-05-05T13:51:51.639Z,100076.66
2023-05-05T13:56:52.982Z,100072.03
2023-05-05T14:01:54.389Z,100076.06
2023-05-05T14:06:58.218Z,100070.31
2023-05-05T14:11:59.668Z,100078.56
2023-05-05T14:17:01.138Z,100076.56
2023-05-05T14:22:02.654Z,100075.84
2023-05-05T14:27:04.641Z,100067.66
2023-05-05T14:32:06.104Z,100067.41
2023-05-05T14:37:07.535Z,100076.06
2023-05-05T14:42:08.909Z,100075.19
2023-05-05T14:47:10.272Z,100082.94
2023-05-05T14:52:11.625Z,100084.28
2023-05-05T14:57:13.081Z,100074.13
2023-05-05T15:02:14.425Z,100085.31
2023-05-05T15:07:15.857Z,100093.25
2023-05-05T15:12:17.208Z,100093.16
2023-05-05T15:17:18.536Z,100092.72
2023-05-05T15:22:19.986Z,100107.66
2023-05-05T15:27:21.443Z,100153.81
2023-05-05T15:32:22.928Z,100221.63
2023-05-05T15:37:24.385Z,100212.69
2023-05-05T15:42:26.336Z,100216.94
2023-05-05T15:47:27.791Z,100208.16
2023-05-05T15:52:29.210Z,100197.28
2023-05-05T15:57:30.580Z,100182.69
2023-05-05T16:02:32.017Z,100171.22
2023-05-05T16:07:33.434Z,100160.78
2023-05-05T16:12:34.866Z,100162.88
2023-05-05T16:17:36.323Z,100154.56
2023-05-05T16:22:37.698Z,100152.38
2023-05-05T16:27:39.085Z,100152.97
2023-05-05T16:32:40.931Z,100160.44
2023-05-05T16:37:42.328Z,100147.44
2023-05-05T16:42:44.580Z,100159.00
2023-05-05T16:47:46.196Z,100159.78
2023-05-05T16:52:48.001Z,100169.28
2023-05-05T16:57:49.519Z,100164.09
2023-05-05T17:02:50.906Z,100169.44
2023-05-05T17:07:52.346Z,100172.91
2023-05-05T17:12:53.772Z,100176.69
2023-05-05T17:17:55.191Z,100174.84
2023-05-05T17:22:56.789Z,100166.91
2023-05-05T17:27:58.206Z,100179.56
2023-05-05T17:32:59.717Z,100178.47
2023-05-05T17:38:01.151Z,100183.69
2023-05-05T17:43:02.488Z,100188.19
2023-05-05T17:48:04.057Z,100193.78
2023-05-05T17:53:05.669Z,100204.78
2023-05-05T17:58:07.047Z,100206.44
2023-05-05T18:03:08.449Z,100205.47
2023-05-05T18:08:09.981Z,100202.63
2023-05-05T18:13:11.521Z,100209.84
2023-05-05T18:18:13.005Z,100207.00
2023-05-05T18:23:14.513Z,100208.06
2023-05-05T18:28:17.435Z,100210.81
2023-05-05T18:33:18.900Z,100214.63
2023-05-05T18:38:21.404Z,100221.47
2023-05-05T18:43:22.870Z,100225.63
2023-05-05T18:48:24.233Z,100225.03
2023-05-05T18:53:25.614Z,100225.28
2023-05-05T18:58:27.274Z,100239.75
2023-05-05T19:03:28.623Z,100238.94
2023-05-05T19:08:29.951Z,100250.66
2023-05-05T19:13:31.398Z,100254.00
2023-05-05T19:18:33.244Z,100239.41
2023-05-05T19:23:36.007Z,100243.53
2023-05-05T19:28:37.526Z,100247.94
2023-05-05T19:33:42.231Z,100252.00
2023-05-05T19:38:44.482Z,100257.44
2023-05-05T19:43:49.909Z,100247.72
2023-05-05T19:48:51.265Z,100254.78
2023-05-05T19:53:52.601Z,100256.31
2023-05-05T19:59:01.852Z,100242.78
2023-05-05T20:04:03.797Z,100255.91
2023-05-05T20:09:05.353Z,100258.09
2023-05-05T20:14:06.696Z,100263.53
2023-05-05T20:19:08.118Z,100269.00
2023-05-05T20:24:09.568Z,100262.72
2023-05-05T20:29:11.024Z,100273.25
2023-05-05T20:34:12.361Z,100271.44
2023-05-05T20:39:16.785Z,100273.25
2023-05-05T20:44:18.137Z,100269.59
2023-05-05T20:49:19.495Z,100276.41
2023-05-05T20:54:21.206Z,100272.16
2023-05-05T20:59:22.576Z,100272.59
2023-05-05T21:04:24.306Z,100277.31
2023-05-05T21:09:25.926Z,100293.00
2023-05-05T21:14:27.285Z,100288.66
2023-05-05T21:19:28.615Z,100287.81
2023-05-05T21:24:29.963Z,100287.91
2023-05-05T21:29:37.376Z,100287.31
2023-05-05T21:34:39.182Z,100284.97
2023-05-05T21:39:41.572Z,100283.91
2023-05-05T21:44:42.960Z,100283.31
2023-05-05T21:49:44.383Z,100292.91
2023-05-05T21:54:45.851Z,100288.38
2023-05-05T21:59:47.292Z,100289.16
2023-05-05T22:04:51.117Z,100278.03
2023-05-05T22:09:52.679Z,100285.25
2023-05-05T22:14:54.094Z,100285.16
2023-05-05T22:19:55.486Z,100295.22
2023-05-05T22:24:56.987Z,100295.84
2023-05-05T22:29:58.341Z,100296.56
2023-05-05T22:35:00.141Z,100298.00
2023-05-05T22:40:01.590Z,100293.19
2023-05-05T22:45:02.970Z,100301.16
2023-05-05T22:50:04.619Z,100305.97
2023-05-05T22:55:06.184Z,100308.97
2023-05-05T23:00:11.049Z,100311.56
2023-05-05T23:05:12.764Z,100309.56
2023-05-05T23:10:14.295Z,100311.41
2023-05-05T23:15:15.726Z,100318.31
2023-05-05T23:20:17.305Z,100316.03
2023-05-05T23:25:18.654Z,100325.63
2023-05-05T23:30:20.177Z,100317.09
2023-05-05T23:35:21.956Z,100321.44
2023-05-05T23:40:23.474Z,100312.03
2023-05-05T23:45:24.821Z,100305.97
2023-05-05T23:50:27.638Z,100305.56
2023-05-05T23:55:29.687Z,100299.94
